sensor_id;sensor_type;location;lat;lon;timestamp;temperature;humidity
42479;DHT22;28110;47.080;9.476;2024-02-26T00:01:51;9.60;77.30
42479;DHT22;28110;47.080;9.476;2024-02-26T00:04:17;9.60;77.20
42479;DHT22;28110;47.080;9.476;2024-02-26T00:06:43;9.60;77.80
42479;DHT22;28110;47.080;9.476;2024-02-26T00:09:09;9.70;76.80
42479;DHT22;28110;47.080;9.476;2024-02-26T00:11:36;9.70;77.00
42479;DHT22;28110;47.080;9.476;2024-02-26T00:14:01;9.70;76.20
42479;DHT22;28110;47.080;9.476;2024-02-26T00:16:27;9.70;75.50
42479;DHT22;28110;47.080;9.476;2024-02-26T00:18:53;9.70;76.60
42479;DHT22;28110;47.080;9.476;2024-02-26T00:21:18;9.80;76.90
42479;DHT22;28110;47.080;9.476;2024-02-26T00:23:44;9.80;76.30
42479;DHT22;28110;47.080;9.476;2024-02-26T00:26:09;9.80;76.70
42479;DHT22;28110;47.080;9.476;2024-02-26T00:28:36;9.80;76.40
42479;DHT22;28110;47.080;9.476;2024-02-26T00:31:02;9.80;76.20
42479;DHT22;28110;47.080;9.476;2024-02-26T00:33:27;9.80;76.80
42479;DHT22;28110;47.080;9.476;2024-02-26T00:35:53;9.90;76.40
42479;DHT22;28110;47.080;9.476;2024-02-26T00:38:19;9.90;76.50
42479;DHT22;28110;47.080;9.476;2024-02-26T00:40:44;9.90;76.60
42479;DHT22;28110;47.080;9.476;2024-02-26T00:43:10;9.90;76.70
42479;DHT22;28110;47.080;9.476;2024-02-26T00:45:35;9.90;76.20
42479;DHT22;28110;47.080;9.476;2024-02-26T00:48:01;9.90;76.40
42479;DHT22;28110;47.080;9.476;2024-02-26T00:50:30;9.90;76.60
42479;DHT22;28110;47.080;9.476;2024-02-26T00:52:55;9.90;76.70
42479;DHT22;28110;47.080;9.476;2024-02-26T00:55:21;9.90;77.40
42479;DHT22;28110;47.080;9.476;2024-02-26T00:57:46;9.90;77.70
42479;DHT22;28110;47.080;9.476;2024-02-26T01:00:13;9.90;76.90
42479;DHT22;28110;47.080;9.476;2024-02-26T01:02:39;9.80;77.50
42479;DHT22;28110;47.080;9.476;2024-02-26T01:05:07;9.80;76.80
42479;DHT22;28110;47.080;9.476;2024-02-26T01:07:34;9.90;76.90
42479;DHT22;28110;47.080;9.476;2024-02-26T01:10:02;9.80;77.10
42479;DHT22;28110;47.080;9.476;2024-02-26T01:12:28;9.90;77.30
42479;DHT22;28110;47.080;9.476;2024-02-26T01:14:53;9.90;77.30
42479;DHT22;28110;47.080;9.476;2024-02-26T01:17:19;9.90;77.10
42479;DHT22;28110;47.080;9.476;2024-02-26T01:19:44;9.90;76.80
42479;DHT22;28110;47.080;9.476;2024-02-26T01:22:10;9.90;76.90
42479;DHT22;28110;47.080;9.476;2024-02-26T01:24:35;10.00;76.70
42479;DHT22;28110;47.080;9.476;2024-02-26T01:27:01;10.00;77.10
42479;DHT22;28110;47.080;9.476;2024-02-26T01:29:26;10.00;76.50
42479;DHT22;28110;47.080;9.476;2024-02-26T01:31:52;10.10;76.40
42479;DHT22;28110;47.080;9.476;2024-02-26T01:34:17;10.10;77.10
42479;DHT22;28110;47.080;9.476;2024-02-26T01:36:43;10.10;77.20
42479;DHT22;28110;47.080;9.476;2024-02-26T01:39:09;10.10;77.40
42479;DHT22;28110;47.080;9.476;2024-02-26T01:41:38;10.00;77.00
42479;DHT22;28110;47.080;9.476;2024-02-26T01:44:04;10.10;77.00
42479;DHT22;28110;47.080;9.476;2024-02-26T01:46:29;10.10;76.60
42479;DHT22;28110;47.080;9.476;2024-02-26T01:48:56;10.20;76.60
42479;DHT22;28110;47.080;9.476;2024-02-26T01:51:22;10.10;76.60
42479;DHT22;28110;47.080;9.476;2024-02-26T01:53:48;10.20;77.00
42479;DHT22;28110;47.080;9.476;2024-02-26T01:56:14;10.20;76.80
42479;DHT22;28110;47.080;9.476;2024-02-26T01:58:41;10.20;76.20
42479;DHT22;28110;47.080;9.476;2024-02-26T02:01:07;10.20;76.80
42479;DHT22;28110;47.080;9.476;2024-02-26T02:03:33;10.20;76.90
42479;DHT22;28110;47.080;9.476;2024-02-26T02:05:59;10.20;76.60
42479;DHT22;28110;47.080;9.476;2024-02-26T02:08:25;10.30;76.80
42479;DHT22;28110;47.080;9.476;2024-02-26T02:10:51;10.20;76.90
42479;DHT22;28110;47.080;9.476;2024-02-26T02:13:16;10.20;77.30
42479;DHT22;28110;47.080;9.476;2024-02-26T02:15:42;10.20;77.50
42479;DHT22;28110;47.080;9.476;2024-02-26T02:18:07;10.20;77.80
42479;DHT22;28110;47.080;9.476;2024-02-26T02:20:34;10.10;77.60
42479;DHT22;28110;47.080;9.476;2024-02-26T02:23:00;10.10;77.30
42479;DHT22;28110;47.080;9.476;2024-02-26T02:25:26;10.10;77.60
42479;DHT22;28110;47.080;9.476;2024-02-26T02:27:53;10.10;77.60
42479;DHT22;28110;47.080;9.476;2024-02-26T02:30:21;10.10;77.60
42479;DHT22;28110;47.080;9.476;2024-02-26T02:32:46;10.10;77.50
42479;DHT22;28110;47.080;9.476;2024-02-26T02:35:12;10.10;77.20
42479;DHT22;28110;47.080;9.476;2024-02-26T02:37:38;10.10;77.10
42479;DHT22;28110;47.080;9.476;2024-02-26T02:40:03;10.20;77.40
42479;DHT22;28110;47.080;9.476;2024-02-26T02:42:30;10.20;76.90
42479;DHT22;28110;47.080;9.476;2024-02-26T02:44:56;10.20;77.00
42479;DHT22;28110;47.080;9.476;2024-02-26T02:47:21;10.10;78.90
42479;DHT22;28110;47.080;9.476;2024-02-26T02:49:47;10.10;77.50
42479;DHT22;28110;47.080;9.476;2024-02-26T02:52:12;10.10;78.50
42479;DHT22;28110;47.080;9.476;2024-02-26T02:54:38;10.10;77.30
42479;DHT22;28110;47.080;9.476;2024-02-26T02:57:05;10.10;77.30
42479;DHT22;28110;47.080;9.476;2024-02-26T02:59:31;10.10;78.10
42479;DHT22;28110;47.080;9.476;2024-02-26T03:01:56;10.10;77.90
42479;DHT22;28110;47.080;9.476;2024-02-26T03:04:22;10.10;78.10
42479;DHT22;28110;47.080;9.476;2024-02-26T03:06:47;10.10;78.80
42479;DHT22;28110;47.080;9.476;2024-02-26T03:09:13;10.00;78.20
42479;DHT22;28110;47.080;9.476;2024-02-26T03:11:39;10.00;79.90
42479;DHT22;28110;47.080;9.476;2024-02-26T03:14:05;9.90;78.90
42479;DHT22;28110;47.080;9.476;2024-02-26T03:16:32;9.90;80.00
42479;DHT22;28110;47.080;9.476;2024-02-26T03:18:57;9.80;80.70
42479;DHT22;28110;47.080;9.476;2024-02-26T03:21:25;9.80;79.70
42479;DHT22;28110;47.080;9.476;2024-02-26T03:23:51;9.80;80.40
42479;DHT22;28110;47.080;9.476;2024-02-26T03:26:16;9.90;79.90
42479;DHT22;28110;47.080;9.476;2024-02-26T03:28:42;9.90;79.20
42479;DHT22;28110;47.080;9.476;2024-02-26T03:31:08;9.90;80.60
42479;DHT22;28110;47.080;9.476;2024-02-26T03:33:34;9.80;81.00
42479;DHT22;28110;47.080;9.476;2024-02-26T03:36:00;9.70;82.40
42479;DHT22;28110;47.080;9.476;2024-02-26T03:38:25;9.70;82.10
42479;DHT22;28110;47.080;9.476;2024-02-26T03:40:51;9.70;81.00
42479;DHT22;28110;47.080;9.476;2024-02-26T03:43:17;9.70;81.60
42479;DHT22;28110;47.080;9.476;2024-02-26T03:45:42;9.80;79.90
42479;DHT22;28110;47.080;9.476;2024-02-26T03:48:08;9.80;82.20
42479;DHT22;28110;47.080;9.476;2024-02-26T03:50:33;9.70;83.30
42479;DHT22;28110;47.080;9.476;2024-02-26T03:53:00;9.70;82.40
42479;DHT22;28110;47.080;9.476;2024-02-26T03:55:25;9.80;81.00
42479;DHT22;28110;47.080;9.476;2024-02-26T03:57:51;9.80;82.10
42479;DHT22;28110;47.080;9.476;2024-02-26T04:00:17;9.90;80.70
42479;DHT22;28110;47.080;9.476;2024-02-26T04:02:43;10.00;80.20
42479;DHT22;28110;47.080;9.476;2024-02-26T04:05:10;10.00;80.20
42479;DHT22;28110;47.080;9.476;2024-02-26T04:07:35;10.00;80.30
42479;DHT22;28110;47.080;9.476;2024-02-26T04:10:01;10.00;80.50
42479;DHT22;28110;47.080;9.476;2024-02-26T04:12:30;9.90;82.90
42479;DHT22;28110;47.080;9.476;2024-02-26T04:14:55;9.80;83.30
42479;DHT22;28110;47.080;9.476;2024-02-26T04:17:21;9.70;83.30
42479;DHT22;28110;47.080;9.476;2024-02-26T04:19:47;9.60;83.50
42479;DHT22;28110;47.080;9.476;2024-02-26T04:22:12;9.50;84.00
42479;DHT22;28110;47.080;9.476;2024-02-26T04:24:38;9.50;84.40
42479;DHT22;28110;47.080;9.476;2024-02-26T04:27:03;9.50;84.20
42479;DHT22;28110;47.080;9.476;2024-02-26T04:29:29;9.50;84.50
42479;DHT22;28110;47.080;9.476;2024-02-26T04:31:54;9.60;82.60
42479;DHT22;28110;47.080;9.476;2024-02-26T04:34:20;9.70;83.10
42479;DHT22;28110;47.080;9.476;2024-02-26T04:36:46;9.70;82.50
42479;DHT22;28110;47.080;9.476;2024-02-26T04:39:13;9.80;81.70
42479;DHT22;28110;47.080;9.476;2024-02-26T04:41:39;9.90;81.60
42479;DHT22;28110;47.080;9.476;2024-02-26T04:44:05;9.80;82.90
42479;DHT22;28110;47.080;9.476;2024-02-26T04:46:30;9.80;82.40
42479;DHT22;28110;47.080;9.476;2024-02-26T04:48:56;9.80;82.80
42479;DHT22;28110;47.080;9.476;2024-02-26T04:51:21;9.80;82.20
42479;DHT22;28110;47.080;9.476;2024-02-26T04:53:47;9.80;82.10
42479;DHT22;28110;47.080;9.476;2024-02-26T04:56:12;9.80;84.10
42479;DHT22;28110;47.080;9.476;2024-02-26T04:58:38;9.60;84.00
42479;DHT22;28110;47.080;9.476;2024-02-26T05:01:05;9.70;82.60
42479;DHT22;28110;47.080;9.476;2024-02-26T05:03:31;9.70;83.00
42479;DHT22;28110;47.080;9.476;2024-02-26T05:05:56;9.80;83.20
42479;DHT22;28110;47.080;9.476;2024-02-26T05:08:23;9.70;84.10
42479;DHT22;28110;47.080;9.476;2024-02-26T05:10:49;9.60;84.80
42479;DHT22;28110;47.080;9.476;2024-02-26T05:13:14;9.60;84.10
42479;DHT22;28110;47.080;9.476;2024-02-26T05:15:41;9.60;83.30
42479;DHT22;28110;47.080;9.476;2024-02-26T05:18:07;9.70;83.70
42479;DHT22;28110;47.080;9.476;2024-02-26T05:20:33;9.60;84.00
42479;DHT22;28110;47.080;9.476;2024-02-26T05:23:00;9.60;84.20
42479;DHT22;28110;47.080;9.476;2024-02-26T05:25:26;9.70;83.10
42479;DHT22;28110;47.080;9.476;2024-02-26T05:27:51;9.80;83.30
42479;DHT22;28110;47.080;9.476;2024-02-26T05:30:17;9.70;83.60
42479;DHT22;28110;47.080;9.476;2024-02-26T05:32:43;9.70;84.10
42479;DHT22;28110;47.080;9.476;2024-02-26T05:35:08;9.70;83.80
42479;DHT22;28110;47.080;9.476;2024-02-26T05:37:34;9.70;82.60
42479;DHT22;28110;47.080;9.476;2024-02-26T05:39:59;9.70;83.30
42479;DHT22;28110;47.080;9.476;2024-02-26T05:42:25;9.70;83.90
42479;DHT22;28110;47.080;9.476;2024-02-26T05:44:50;9.70;83.60
42479;DHT22;28110;47.080;9.476;2024-02-26T05:47:16;9.60;84.00
42479;DHT22;28110;47.080;9.476;2024-02-26T05:49:42;9.70;84.00
42479;DHT22;28110;47.080;9.476;2024-02-26T05:52:08;9.70;84.60
42479;DHT22;28110;47.080;9.476;2024-02-26T05:54:33;9.70;84.20
42479;DHT22;28110;47.080;9.476;2024-02-26T05:56:59;9.50;84.50
42479;DHT22;28110;47.080;9.476;2024-02-26T05:59:24;9.50;85.80
42479;DHT22;28110;47.080;9.476;2024-02-26T06:01:50;9.30;86.90
42479;DHT22;28110;47.080;9.476;2024-02-26T06:04:16;9.20;87.40
42479;DHT22;28110;47.080;9.476;2024-02-26T06:06:44;9.20;87.40
42479;DHT22;28110;47.080;9.476;2024-02-26T06:09:09;9.20;85.20
42479;DHT22;28110;47.080;9.476;2024-02-26T06:11:36;9.20;86.60
42479;DHT22;28110;47.080;9.476;2024-02-26T06:14:02;9.10;88.30
42479;DHT22;28110;47.080;9.476;2024-02-26T06:16:27;9.10;88.60
42479;DHT22;28110;47.080;9.476;2024-02-26T06:18:53;9.00;89.00
42479;DHT22;28110;47.080;9.476;2024-02-26T06:21:19;9.00;89.30
42479;DHT22;28110;47.080;9.476;2024-02-26T06:23:44;8.90;89.50
42479;DHT22;28110;47.080;9.476;2024-02-26T06:26:10;8.90;90.00
42479;DHT22;28110;47.080;9.476;2024-02-26T06:28:36;8.70;90.30
42479;DHT22;28110;47.080;9.476;2024-02-26T06:31:02;8.70;90.10
42479;DHT22;28110;47.080;9.476;2024-02-26T06:33:28;8.70;90.20
42479;DHT22;28110;47.080;9.476;2024-02-26T06:35:53;8.70;90.30
42479;DHT22;28110;47.080;9.476;2024-02-26T06:38:19;8.70;90.30
42479;DHT22;28110;47.080;9.476;2024-02-26T06:40:45;8.80;90.10
42479;DHT22;28110;47.080;9.476;2024-02-26T06:43:11;8.70;90.20
42479;DHT22;28110;47.080;9.476;2024-02-26T06:45:36;8.70;90.00
42479;DHT22;28110;47.080;9.476;2024-02-26T06:48:02;8.80;90.10
42479;DHT22;28110;47.080;9.476;2024-02-26T06:50:28;8.80;90.40
42479;DHT22;28110;47.080;9.476;2024-02-26T06:52:53;8.80;89.80
42479;DHT22;28110;47.080;9.476;2024-02-26T06:55:19;8.80;89.60
42479;DHT22;28110;47.080;9.476;2024-02-26T06:57:44;8.80;90.20
42479;DHT22;28110;47.080;9.476;2024-02-26T07:00:10;8.90;90.30
42479;DHT22;28110;47.080;9.476;2024-02-26T07:02:40;8.90;90.10
42479;DHT22;28110;47.080;9.476;2024-02-26T07:05:06;8.90;90.30
42479;DHT22;28110;47.080;9.476;2024-02-26T07:07:31;8.90;90.00
42479;DHT22;28110;47.080;9.476;2024-02-26T07:09:57;8.90;89.50
42479;DHT22;28110;47.080;9.476;2024-02-26T07:12:23;8.90;90.10
42479;DHT22;28110;47.080;9.476;2024-02-26T07:14:49;9.00;89.40
42479;DHT22;28110;47.080;9.476;2024-02-26T07:17:15;9.10;88.10
42479;DHT22;28110;47.080;9.476;2024-02-26T07:19:41;9.10;89.20
42479;DHT22;28110;47.080;9.476;2024-02-26T07:22:07;9.10;90.10
42479;DHT22;28110;47.080;9.476;2024-02-26T07:24:33;9.00;90.10
42479;DHT22;28110;47.080;9.476;2024-02-26T07:26:58;8.90;90.50
42479;DHT22;28110;47.080;9.476;2024-02-26T07:29:24;8.90;90.40
42479;DHT22;28110;47.080;9.476;2024-02-26T07:31:49;8.90;90.60
42479;DHT22;28110;47.080;9.476;2024-02-26T07:34:15;8.90;90.40
42479;DHT22;28110;47.080;9.476;2024-02-26T07:36:40;8.90;90.40
42479;DHT22;28110;47.080;9.476;2024-02-26T07:39:06;8.90;90.40
42479;DHT22;28110;47.080;9.476;2024-02-26T07:41:31;9.00;90.50
42479;DHT22;28110;47.080;9.476;2024-02-26T07:43:57;9.00;90.20
42479;DHT22;28110;47.080;9.476;2024-02-26T07:46:22;9.00;90.50
42479;DHT22;28110;47.080;9.476;2024-02-26T07:48:48;9.10;90.00
42479;DHT22;28110;47.080;9.476;2024-02-26T07:51:14;9.20;89.60
42479;DHT22;28110;47.080;9.476;2024-02-26T07:53:40;9.20;90.30
42479;DHT22;28110;47.080;9.476;2024-02-26T07:56:06;9.20;90.30
42479;DHT22;28110;47.080;9.476;2024-02-26T07:58:35;9.20;90.20
42479;DHT22;28110;47.080;9.476;2024-02-26T08:01:00;9.20;90.50
42479;DHT22;28110;47.080;9.476;2024-02-26T08:03:26;9.20;90.60
42479;DHT22;28110;47.080;9.476;2024-02-26T08:05:51;9.20;90.60
42479;DHT22;28110;47.080;9.476;2024-02-26T08:08:17;9.30;90.30
42479;DHT22;28110;47.080;9.476;2024-02-26T08:10:43;9.30;90.70
42479;DHT22;28110;47.080;9.476;2024-02-26T08:13:09;9.30;90.70
42479;DHT22;28110;47.080;9.476;2024-02-26T08:15:37;9.40;90.40
42479;DHT22;28110;47.080;9.476;2024-02-26T08:18:03;9.50;90.50
42479;DHT22;28110;47.080;9.476;2024-02-26T08:20:29;9.50;90.30
42479;DHT22;28110;47.080;9.476;2024-02-26T08:22:56;9.60;90.20
42479;DHT22;28110;47.080;9.476;2024-02-26T08:25:22;9.60;90.10
42479;DHT22;28110;47.080;9.476;2024-02-26T08:27:47;9.70;89.90
42479;DHT22;28110;47.080;9.476;2024-02-26T08:30:14;9.70;90.00
42479;DHT22;28110;47.080;9.476;2024-02-26T08:32:45;9.80;89.70
42479;DHT22;28110;47.080;9.476;2024-02-26T08:35:11;9.80;90.10
42479;DHT22;28110;47.080;9.476;2024-02-26T08:37:36;9.70;90.50
42479;DHT22;28110;47.080;9.476;2024-02-26T08:40:02;9.80;90.10
42479;DHT22;28110;47.080;9.476;2024-02-26T08:42:29;9.80;89.70
42479;DHT22;28110;47.080;9.476;2024-02-26T08:44:55;10.00;88.90
42479;DHT22;28110;47.080;9.476;2024-02-26T08:47:20;10.10;88.50
42479;DHT22;28110;47.080;9.476;2024-02-26T08:49:46;10.20;90.10
42479;DHT22;28110;47.080;9.476;2024-02-26T08:52:11;10.20;89.70
42479;DHT22;28110;47.080;9.476;2024-02-26T08:54:37;10.30;90.00
42479;DHT22;28110;47.080;9.476;2024-02-26T08:57:03;10.30;89.50
42479;DHT22;28110;47.080;9.476;2024-02-26T08:59:29;10.40;90.00
42479;DHT22;28110;47.080;9.476;2024-02-26T09:01:55;10.50;88.60
42479;DHT22;28110;47.080;9.476;2024-02-26T09:04:20;10.60;88.70
42479;DHT22;28110;47.080;9.476;2024-02-26T09:06:46;10.50;87.40
42479;DHT22;28110;47.080;9.476;2024-02-26T09:09:12;10.50;88.50
42479;DHT22;28110;47.080;9.476;2024-02-26T09:11:37;10.40;87.80
42479;DHT22;28110;47.080;9.476;2024-02-26T09:14:03;10.40;88.00
42479;DHT22;28110;47.080;9.476;2024-02-26T09:16:29;10.40;86.00
42479;DHT22;28110;47.080;9.476;2024-02-26T09:18:55;10.40;87.30
42479;DHT22;28110;47.080;9.476;2024-02-26T09:21:21;10.40;87.00
42479;DHT22;28110;47.080;9.476;2024-02-26T09:23:52;10.50;83.20
42479;DHT22;28110;47.080;9.476;2024-02-26T09:26:17;10.60;84.80
42479;DHT22;28110;47.080;9.476;2024-02-26T09:28:43;10.70;84.70
42479;DHT22;28110;47.080;9.476;2024-02-26T09:31:09;10.70;85.00
42479;DHT22;28110;47.080;9.476;2024-02-26T09:33:34;10.80;83.80
42479;DHT22;28110;47.080;9.476;2024-02-26T09:36:00;10.90;83.40
42479;DHT22;28110;47.080;9.476;2024-02-26T09:38:29;11.00;82.20
42479;DHT22;28110;47.080;9.476;2024-02-26T09:40:57;11.10;83.30
42479;DHT22;28110;47.080;9.476;2024-02-26T09:43:23;11.10;82.30
42479;DHT22;28110;47.080;9.476;2024-02-26T09:45:53;11.20;81.30
42479;DHT22;28110;47.080;9.476;2024-02-26T09:48:19;11.20;81.90
42479;DHT22;28110;47.080;9.476;2024-02-26T09:50:45;11.30;81.60
42479;DHT22;28110;47.080;9.476;2024-02-26T09:53:12;11.40;80.20
42479;DHT22;28110;47.080;9.476;2024-02-26T09:55:38;11.40;79.80
42479;DHT22;28110;47.080;9.476;2024-02-26T09:58:05;11.40;79.00
42479;DHT22;28110;47.080;9.476;2024-02-26T10:00:31;11.50;80.80
42479;DHT22;28110;47.080;9.476;2024-02-26T10:03:04;11.50;80.50
42479;DHT22;28110;47.080;9.476;2024-02-26T10:05:32;11.50;80.10
42479;DHT22;28110;47.080;9.476;2024-02-26T10:07:59;11.50;79.80
42479;DHT22;28110;47.080;9.476;2024-02-26T10:10:28;11.60;79.80
42479;DHT22;28110;47.080;9.476;2024-02-26T10:12:54;11.50;79.40
42479;DHT22;28110;47.080;9.476;2024-02-26T10:15:20;11.60;79.40
42479;DHT22;28110;47.080;9.476;2024-02-26T10:17:46;11.70;79.50
42479;DHT22;28110;47.080;9.476;2024-02-26T10:20:13;11.70;78.80
42479;DHT22;28110;47.080;9.476;2024-02-26T10:22:43;11.60;79.10
42479;DHT22;28110;47.080;9.476;2024-02-26T10:25:09;11.60;79.40
42479;DHT22;28110;47.080;9.476;2024-02-26T10:27:35;11.60;78.40
42479;DHT22;28110;47.080;9.476;2024-02-26T10:30:05;11.60;79.60
42479;DHT22;28110;47.080;9.476;2024-02-26T10:32:40;11.60;79.60
42479;DHT22;28110;47.080;9.476;2024-02-26T10:35:08;11.60;78.80
42479;DHT22;28110;47.080;9.476;2024-02-26T10:37:34;11.60;79.20
42479;DHT22;28110;47.080;9.476;2024-02-26T10:39:59;11.60;79.50
42479;DHT22;28110;47.080;9.476;2024-02-26T10:42:26;11.60;79.50
42479;DHT22;28110;47.080;9.476;2024-02-26T10:44:51;11.60;80.30
42479;DHT22;28110;47.080;9.476;2024-02-26T10:47:17;11.50;80.30
42479;DHT22;28110;47.080;9.476;2024-02-26T10:49:47;11.50;79.90
42479;DHT22;28110;47.080;9.476;2024-02-26T10:52:15;11.50;80.40
42479;DHT22;28110;47.080;9.476;2024-02-26T10:54:47;11.60;80.60
42479;DHT22;28110;47.080;9.476;2024-02-26T10:57:13;11.60;80.30
42479;DHT22;28110;47.080;9.476;2024-02-26T10:59:40;11.60;80.80
42479;DHT22;28110;47.080;9.476;2024-02-26T11:02:08;11.60;80.40
42479;DHT22;28110;47.080;9.476;2024-02-26T11:04:35;11.50;80.40
42479;DHT22;28110;47.080;9.476;2024-02-26T11:07:02;11.50;80.80
42479;DHT22;28110;47.080;9.476;2024-02-26T11:09:28;11.60;80.30
42479;DHT22;28110;47.080;9.476;2024-02-26T11:11:54;11.50;81.10
42479;DHT22;28110;47.080;9.476;2024-02-26T11:14:20;11.60;81.70
42479;DHT22;28110;47.080;9.476;2024-02-26T11:16:47;11.70;82.60
42479;DHT22;28110;47.080;9.476;2024-02-26T11:19:15;11.60;82.70
42479;DHT22;28110;47.080;9.476;2024-02-26T11:21:41;11.70;82.90
42479;DHT22;28110;47.080;9.476;2024-02-26T11:24:13;11.80;81.60
42479;DHT22;28110;47.080;9.476;2024-02-26T11:26:54;11.90;81.20
42479;DHT22;28110;47.080;9.476;2024-02-26T11:29:26;11.90;83.00
42479;DHT22;28110;47.080;9.476;2024-02-26T11:31:53;12.00;82.20
42479;DHT22;28110;47.080;9.476;2024-02-26T11:34:19;12.00;82.50
42479;DHT22;28110;47.080;9.476;2024-02-26T11:36:46;12.00;81.50
42479;DHT22;28110;47.080;9.476;2024-02-26T11:39:12;12.10;81.50
42479;DHT22;28110;47.080;9.476;2024-02-26T11:41:40;12.10;80.70
42479;DHT22;28110;47.080;9.476;2024-02-26T11:44:06;12.20;80.30
42479;DHT22;28110;47.080;9.476;2024-02-26T11:46:39;12.30;79.90
42479;DHT22;28110;47.080;9.476;2024-02-26T11:51:57;12.40;80.10
42479;DHT22;28110;47.080;9.476;2024-02-26T11:54:48;12.40;81.10
42479;DHT22;28110;47.080;9.476;2024-02-26T11:57:39;12.40;79.80
42479;DHT22;28110;47.080;9.476;2024-02-26T12:00:12;12.40;80.70
42479;DHT22;28110;47.080;9.476;2024-02-26T12:02:47;12.40;80.00
42479;DHT22;28110;47.080;9.476;2024-02-26T12:05:19;12.40;81.20
42479;DHT22;28110;47.080;9.476;2024-02-26T12:07:47;12.40;81.50
42479;DHT22;28110;47.080;9.476;2024-02-26T12:10:15;12.40;81.50
42479;DHT22;28110;47.080;9.476;2024-02-26T12:12:42;12.40;80.70
42479;DHT22;28110;47.080;9.476;2024-02-26T12:15:08;12.30;80.00
42479;DHT22;28110;47.080;9.476;2024-02-26T12:17:34;12.30;79.60
42479;DHT22;28110;47.080;9.476;2024-02-26T12:20:13;12.30;79.90
42479;DHT22;28110;47.080;9.476;2024-02-26T12:22:45;12.30;80.00
42479;DHT22;28110;47.080;9.476;2024-02-26T12:25:12;12.30;79.80
42479;DHT22;28110;47.080;9.476;2024-02-26T12:27:38;12.30;80.00
42479;DHT22;28110;47.080;9.476;2024-02-26T12:30:04;12.30;80.20
42479;DHT22;28110;47.080;9.476;2024-02-26T12:32:32;12.30;79.60
42479;DHT22;28110;47.080;9.476;2024-02-26T12:34:58;12.30;80.40
42479;DHT22;28110;47.080;9.476;2024-02-26T12:37:25;12.20;80.40
42479;DHT22;28110;47.080;9.476;2024-02-26T12:39:51;12.30;79.30
42479;DHT22;28110;47.080;9.476;2024-02-26T12:42:17;12.30;79.00
42479;DHT22;28110;47.080;9.476;2024-02-26T12:44:45;12.30;78.60
42479;DHT22;28110;47.080;9.476;2024-02-26T12:47:11;12.40;78.70
42479;DHT22;28110;47.080;9.476;2024-02-26T12:49:42;12.40;79.70
42479;DHT22;28110;47.080;9.476;2024-02-26T12:52:10;12.40;78.70
42479;DHT22;28110;47.080;9.476;2024-02-26T12:54:36;12.40;79.20
42479;DHT22;28110;47.080;9.476;2024-02-26T12:57:05;12.40;78.80
42479;DHT22;28110;47.080;9.476;2024-02-26T12:59:32;12.40;79.70
42479;DHT22;28110;47.080;9.476;2024-02-26T13:01:58;12.40;78.70
42479;DHT22;28110;47.080;9.476;2024-02-26T13:04:25;12.40;78.70
42479;DHT22;28110;47.080;9.476;2024-02-26T13:06:51;12.40;78.40
42479;DHT22;28110;47.080;9.476;2024-02-26T13:09:17;12.30;77.50
42479;DHT22;28110;47.080;9.476;2024-02-26T13:11:44;12.40;78.40
42479;DHT22;28110;47.080;9.476;2024-02-26T13:14:22;12.40;78.30
42479;DHT22;28110;47.080;9.476;2024-02-26T13:16:57;12.40;78.50
42479;DHT22;28110;47.080;9.476;2024-02-26T13:19:24;12.40;79.70
42479;DHT22;28110;47.080;9.476;2024-02-26T13:21:49;12.40;78.70
42479;DHT22;28110;47.080;9.476;2024-02-26T13:24:15;12.40;77.60
42479;DHT22;28110;47.080;9.476;2024-02-26T13:26:41;12.40;78.30
42479;DHT22;28110;47.080;9.476;2024-02-26T13:29:07;12.40;79.10
42479;DHT22;28110;47.080;9.476;2024-02-26T13:31:39;12.40;80.40
42479;DHT22;28110;47.080;9.476;2024-02-26T13:34:08;12.40;80.00
42479;DHT22;28110;47.080;9.476;2024-02-26T13:36:33;12.40;79.80
42479;DHT22;28110;47.080;9.476;2024-02-26T13:38:59;12.40;77.80
42479;DHT22;28110;47.080;9.476;2024-02-26T13:41:25;12.50;78.00
42479;DHT22;28110;47.080;9.476;2024-02-26T13:43:51;12.50;78.30
42479;DHT22;28110;47.080;9.476;2024-02-26T13:46:17;12.50;78.80
42479;DHT22;28110;47.080;9.476;2024-02-26T13:48:43;12.50;78.50
42479;DHT22;28110;47.080;9.476;2024-02-26T13:51:09;12.50;79.20
42479;DHT22;28110;47.080;9.476;2024-02-26T13:53:34;12.40;79.90
42479;DHT22;28110;47.080;9.476;2024-02-26T13:56:00;12.50;80.40
42479;DHT22;28110;47.080;9.476;2024-02-26T13:58:27;12.50;79.00
42479;DHT22;28110;47.080;9.476;2024-02-26T14:00:53;12.50;79.80
42479;DHT22;28110;47.080;9.476;2024-02-26T14:03:20;12.40;80.60
42479;DHT22;28110;47.080;9.476;2024-02-26T14:05:45;12.40;81.10
42479;DHT22;28110;47.080;9.476;2024-02-26T14:08:11;12.40;80.40
42479;DHT22;28110;47.080;9.476;2024-02-26T14:10:37;12.40;80.60
42479;DHT22;28110;47.080;9.476;2024-02-26T14:13:03;12.40;80.40
42479;DHT22;28110;47.080;9.476;2024-02-26T14:15:28;12.50;80.90
42479;DHT22;28110;47.080;9.476;2024-02-26T14:17:55;12.50;80.70
42479;DHT22;28110;47.080;9.476;2024-02-26T14:20:22;12.50;80.70
42479;DHT22;28110;47.080;9.476;2024-02-26T14:22:49;12.50;80.30
42479;DHT22;28110;47.080;9.476;2024-02-26T14:25:16;12.50;80.70
42479;DHT22;28110;47.080;9.476;2024-02-26T14:27:42;12.60;82.00
42479;DHT22;28110;47.080;9.476;2024-02-26T14:30:08;12.60;83.00
42479;DHT22;28110;47.080;9.476;2024-02-26T14:32:34;12.60;82.80
42479;DHT22;28110;47.080;9.476;2024-02-26T14:35:02;12.60;82.10
42479;DHT22;28110;47.080;9.476;2024-02-26T14:37:28;12.60;81.80
42479;DHT22;28110;47.080;9.476;2024-02-26T14:39:54;12.60;83.50
42479;DHT22;28110;47.080;9.476;2024-02-26T14:42:19;12.50;82.60
42479;DHT22;28110;47.080;9.476;2024-02-26T14:44:45;12.50;83.50
42479;DHT22;28110;47.080;9.476;2024-02-26T14:47:13;12.50;83.00
42479;DHT22;28110;47.080;9.476;2024-02-26T14:49:38;12.40;83.00
42479;DHT22;28110;47.080;9.476;2024-02-26T14:52:04;12.40;83.50
42479;DHT22;28110;47.080;9.476;2024-02-26T14:54:30;12.40;84.60
42479;DHT22;28110;47.080;9.476;2024-02-26T14:57:03;12.40;85.40
42479;DHT22;28110;47.080;9.476;2024-02-26T14:59:30;12.30;85.70
42479;DHT22;28110;47.080;9.476;2024-02-26T15:01:57;12.30;85.70
42479;DHT22;28110;47.080;9.476;2024-02-26T15:04:22;12.30;85.30
42479;DHT22;28110;47.080;9.476;2024-02-26T15:06:48;12.30;85.10
42479;DHT22;28110;47.080;9.476;2024-02-26T15:09:13;12.30;85.80
42479;DHT22;28110;47.080;9.476;2024-02-26T15:11:39;12.30;86.20
42479;DHT22;28110;47.080;9.476;2024-02-26T15:14:06;12.30;85.10
42479;DHT22;28110;47.080;9.476;2024-02-26T15:16:32;12.30;84.20
42479;DHT22;28110;47.080;9.476;2024-02-26T15:18:57;12.30;85.30
42479;DHT22;28110;47.080;9.476;2024-02-26T15:21:23;12.40;85.50
42479;DHT22;28110;47.080;9.476;2024-02-26T15:23:49;12.40;84.80
42479;DHT22;28110;47.080;9.476;2024-02-26T15:26:17;12.40;84.40
42479;DHT22;28110;47.080;9.476;2024-02-26T15:28:43;12.40;84.10
42479;DHT22;28110;47.080;9.476;2024-02-26T15:31:08;12.50;84.00
42479;DHT22;28110;47.080;9.476;2024-02-26T15:33:34;12.50;84.10
42479;DHT22;28110;47.080;9.476;2024-02-26T15:35:59;12.40;84.60